createdAt,value
2019-05-11T00:00:30.644Z,97105.06
2019-05-11T00:02:59.079Z,97098.59
2019-05-11T00:05:27.504Z,97100.42
2019-05-11T00:07:55.959Z,97100.02
2019-05-11T00:10:24.527Z,97103.00
2019-05-11T00:12:52.953Z,97102.68
2019-05-11T00:15:21.377Z,97105.20
2019-05-11T00:17:49.823Z,97100.95
2019-05-11T00:20:18.279Z,97090.59
2019-05-11T00:22:46.739Z,97089.80
2019-05-11T00:25:15.645Z,97099.80
2019-05-11T00:27:44.105Z,97089.80
2019-05-11T00:30:12.979Z,97081.27
2019-05-11T00:32:41.408Z,97071.51
2019-05-11T00:35:09.946Z,97059.53
2019-05-11T00:37:38.392Z,97055.25
2019-05-11T00:40:14.474Z,97060.43
2019-05-11T00:42:37.332Z,97061.73
2019-05-11T00:45:07.527Z,97060.96
2019-05-11T00:47:35.976Z,97058.84
2019-05-11T00:50:06.094Z,97045.96
2019-05-11T00:52:34.535Z,97044.73
2019-05-11T00:55:03.013Z,97043.52
2019-05-11T00:57:31.515Z,97035.74
2019-05-11T00:59:59.984Z,97035.81
2019-05-11T01:02:28.453Z,97042.36
2019-05-11T01:04:56.879Z,97046.77
2019-05-11T01:07:25.326Z,97036.92
2019-05-11T01:09:53.793Z,97037.06
2019-05-11T01:12:22.239Z,97032.41
2019-05-11T01:14:50.705Z,97030.72
2019-05-11T01:17:19.133Z,97025.72
2019-05-11T01:19:47.588Z,97032.69
2019-05-11T01:22:16.049Z,97029.73
2019-05-11T01:24:44.466Z,97022.41
2019-05-11T01:27:12.914Z,97018.22
2019-05-11T01:29:41.403Z,97013.95
2019-05-11T01:32:09.872Z,97009.67
2019-05-11T01:34:38.336Z,96998.02
2019-05-11T01:37:06.768Z,97002.83
2019-05-11T01:39:35.194Z,96994.27
2019-05-11T01:42:03.619Z,96997.33
2019-05-11T01:44:32.091Z,96996.10
2019-05-11T01:47:00.567Z,96988.34
2019-05-11T01:49:29.022Z,96982.77
2019-05-11T01:51:57.401Z,96993.52
2019-05-11T01:54:25.842Z,97004.70
2019-05-11T01:56:54.212Z,97009.38
2019-05-11T01:59:22.614Z,97008.91
2019-05-11T02:01:51.039Z,97004.63
2019-05-11T02:04:19.421Z,97002.04
2019-05-11T02:06:47.815Z,96999.91
2019-05-11T02:09:16.238Z,96994.34
2019-05-11T02:11:44.621Z,96993.12
2019-05-11T02:14:13.006Z,96999.23
2019-05-11T02:16:41.396Z,96994.95
2019-05-11T02:19:09.777Z,96997.53
2019-05-11T02:21:38.186Z,96989.47
2019-05-11T02:24:06.576Z,96993.79
2019-05-11T02:26:34.973Z,96990.91
2019-05-11T02:29:03.358Z,96996.15
2019-05-11T02:31:31.848Z,96992.41
2019-05-11T02:34:00.221Z,96984.70
2019-05-11T02:36:28.622Z,96982.55
2019-05-11T02:38:57.015Z,96980.50
2019-05-11T02:41:35.583Z,96979.73
2019-05-11T02:43:55.529Z,96975.46
2019-05-11T02:46:23.936Z,96971.22
2019-05-11T02:48:52.326Z,96966.94
2019-05-11T02:51:21.162Z,96965.25
2019-05-11T02:53:49.823Z,96954.14
2019-05-11T02:56:18.212Z,96955.50
2019-05-11T02:58:46.617Z,96956.10
2019-05-11T03:01:15.003Z,96947.48
2019-05-11T03:03:43.396Z,96938.20
2019-05-11T03:06:11.786Z,96882.97
2019-05-11T03:08:40.182Z,96951.63
2019-05-11T03:11:08.577Z,96950.88
2019-05-11T03:13:36.967Z,96940.59
2019-05-11T03:16:05.439Z,96939.41
2019-05-11T03:18:33.839Z,96940.70
2019-05-11T03:21:02.227Z,96943.05
2019-05-11T03:23:30.625Z,96951.64
2019-05-11T03:25:59.008Z,96964.97
2019-05-11T03:28:27.406Z,96957.20
2019-05-11T03:30:55.816Z,96948.98
2019-05-11T03:33:24.205Z,96943.88
2019-05-11T03:35:52.581Z,96937.09
2019-05-11T03:38:21.323Z,96944.48
2019-05-11T03:40:49.710Z,96940.59
2019-05-11T03:43:18.102Z,96933.73
2019-05-11T03:45:46.494Z,96931.16
2019-05-11T03:48:14.927Z,96931.69
2019-05-11T03:50:43.291Z,96917.27
2019-05-11T03:53:11.690Z,96905.00
2019-05-11T03:55:40.101Z,96920.05
2019-05-11T03:58:08.484Z,96920.58
2019-05-11T04:00:36.912Z,96907.66
2019-05-11T04:03:05.275Z,96894.73
2019-05-11T04:05:33.665Z,96893.44
2019-05-11T04:08:02.061Z,96885.28
2019-05-11T04:10:30.458Z,96886.58
2019-05-11T04:12:58.852Z,96886.08
2019-05-11T04:15:27.313Z,96885.94
2019-05-11T04:17:55.652Z,96874.67
2019-05-11T04:20:24.040Z,96865.26
2019-05-11T04:22:52.433Z,96863.03
2019-05-11T04:25:20.830Z,96852.27
2019-05-11T04:27:49.242Z,96837.58
2019-05-11T04:30:17.850Z,96845.34
2019-05-11T04:32:46.246Z,96847.02
2019-05-11T04:35:14.713Z,96857.73
2019-05-11T04:37:43.111Z,96864.06
2019-05-11T04:40:11.769Z,96862.09
2019-05-11T04:42:54.549Z,96862.75
2019-05-11T04:45:10.528Z,96857.40
2019-05-11T04:47:38.933Z,96847.81
2019-05-11T04:50:08.071Z,96847.73
2019-05-11T04:52:36.459Z,96846.05
2019-05-11T04:55:05.601Z,96843.39
2019-05-11T04:57:34.006Z,96849.03
2019-05-11T05:00:02.411Z,96854.64
2019-05-11T05:02:30.796Z,96853.81
2019-05-11T05:04:59.196Z,96846.58
2019-05-11T05:07:27.578Z,96853.95
2019-05-11T05:09:55.967Z,96875.11
2019-05-11T05:12:24.374Z,96875.57
2019-05-11T05:14:52.773Z,96883.33
2019-05-11T05:17:21.154Z,96871.27
2019-05-11T05:19:49.605Z,96867.84
2019-05-11T05:22:18.001Z,96860.52
2019-05-11T05:24:46.401Z,96865.27
2019-05-11T05:27:14.788Z,96871.69
2019-05-11T05:29:43.193Z,96871.16
2019-05-11T05:32:11.600Z,96875.50
2019-05-11T05:34:39.997Z,96873.74
2019-05-11T05:37:08.391Z,96874.64
2019-05-11T05:39:36.829Z,96884.98
2019-05-11T05:42:05.232Z,96878.91
2019-05-11T05:44:33.659Z,96893.14
2019-05-11T05:47:02.038Z,96895.20
2019-05-11T05:49:30.466Z,96886.90
2019-05-11T05:51:58.880Z,96895.05
2019-05-11T05:54:27.313Z,96892.08
2019-05-11T05:56:55.703Z,96888.66
2019-05-11T05:59:24.169Z,96884.09
2019-05-11T06:01:52.620Z,96887.14
2019-05-11T06:04:20.960Z,96886.67
2019-05-11T06:06:49.366Z,96879.81
2019-05-11T06:09:17.777Z,96863.39
2019-05-11T06:11:46.341Z,96859.81
2019-05-11T06:14:14.742Z,96870.88
2019-05-11T06:16:43.137Z,96874.98
2019-05-11T06:19:11.537Z,96866.33
2019-05-11T06:21:40.024Z,96879.19
2019-05-11T06:24:08.911Z,96880.08
2019-05-11T06:26:37.498Z,96895.17
2019-05-11T06:29:05.895Z,96896.97
2019-05-11T06:31:34.283Z,96898.66
2019-05-11T06:34:02.677Z,96879.14
2019-05-11T06:36:31.115Z,96886.26
2019-05-11T06:38:59.511Z,96874.98
2019-05-11T06:41:28.062Z,96869.80
2019-05-11T06:44:01.844Z,96850.80
2019-05-11T06:46:26.601Z,96848.28
2019-05-11T06:48:55.001Z,96864.63
2019-05-11T06:51:23.408Z,96868.91
2019-05-11T06:53:51.790Z,96870.20
2019-05-11T06:56:20.185Z,96863.59
2019-05-11T06:58:48.577Z,96868.77
2019-05-11T07:01:17.008Z,96856.59
2019-05-11T07:03:45.384Z,96858.50
2019-05-11T07:06:13.783Z,96839.59
2019-05-11T07:08:42.254Z,96829.56
2019-05-11T07:11:10.678Z,96832.92
2019-05-11T07:13:39.119Z,96839.02
2019-05-11T07:16:07.552Z,96847.94
2019-05-11T07:18:35.971Z,96837.36
2019-05-11T07:21:04.433Z,96836.81
2019-05-11T07:23:32.828Z,96831.09
2019-05-11T07:26:01.225Z,96836.35
2019-05-11T07:28:29.629Z,96834.67
2019-05-11T07:30:58.075Z,96853.48
2019-05-11T07:33:28.565Z,96836.88
2019-05-11T07:35:58.265Z,96846.15
2019-05-11T07:38:27.821Z,96844.18
2019-05-11T07:40:58.233Z,96844.00
2019-05-11T07:43:28.708Z,96846.98
2019-05-11T07:45:58.473Z,96851.95
2019-05-11T07:48:27.871Z,96844.70
2019-05-11T07:50:58.479Z,96847.76
2019-05-11T07:53:27.885Z,96847.13
2019-05-11T07:55:57.757Z,96852.55
2019-05-11T07:58:28.522Z,96840.41
2019-05-11T08:00:58.105Z,96829.84
2019-05-11T08:03:28.395Z,96841.95
2019-05-11T08:05:58.226Z,96839.81
2019-05-11T08:08:28.346Z,96839.16
2019-05-11T08:10:58.692Z,96838.97
2019-05-11T08:13:28.245Z,96840.25
2019-05-11T08:15:57.843Z,96843.66
2019-05-11T08:18:28.215Z,96834.53
2019-05-11T08:20:58.345Z,96836.52
2019-05-11T08:23:28.546Z,96836.56
2019-05-11T08:25:58.143Z,96826.96
2019-05-11T08:28:28.709Z,96821.43
2019-05-11T08:30:57.934Z,96826.44
2019-05-11T08:33:28.399Z,96830.18
2019-05-11T08:35:58.305Z,96836.50
2019-05-11T08:38:28.559Z,96831.47
2019-05-11T08:40:59.021Z,96836.39
2019-05-11T08:43:28.530Z,96826.47
2019-05-11T08:45:57.830Z,96825.98
2019-05-11T08:48:28.315Z,96820.50
2019-05-11T08:50:58.218Z,96818.26
2019-05-11T08:53:28.429Z,96808.55
2019-05-11T08:55:58.853Z,96801.30
2019-05-11T08:58:27.819Z,96798.47
2019-05-11T09:00:58.241Z,96797.34
2019-05-11T09:03:28.442Z,96798.78
2019-05-11T09:05:57.948Z,96793.74
2019-05-11T09:08:28.297Z,96793.59
2019-05-11T09:10:58.230Z,96791.21
2019-05-11T09:13:27.961Z,96788.38
2019-05-11T09:15:58.678Z,96782.18
2019-05-11T09:18:28.000Z,96771.48
2019-05-11T09:20:57.709Z,96769.05
2019-05-11T09:23:34.731Z,96771.03
2019-05-11T09:25:58.385Z,96764.31
2019-05-11T09:28:26.416Z,96782.08
2019-05-11T09:30:54.808Z,96788.34
2019-05-11T09:33:23.255Z,96788.59
2019-05-11T09:35:53.537Z,96792.11
2019-05-11T09:38:21.762Z,96787.41
2019-05-11T09:40:50.157Z,96792.78
2019-05-11T09:43:18.554Z,96788.12
2019-05-11T09:45:51.095Z,96769.77
2019-05-11T09:48:18.023Z,96771.72
2019-05-11T09:50:48.097Z,96770.30
2019-05-11T09:53:17.682Z,96759.97
2019-05-11T09:55:48.139Z,96768.84
2019-05-11T09:58:19.573Z,96769.84
2019-05-11T10:00:47.928Z,96768.75
2019-05-11T10:03:18.661Z,96766.81
2019-05-11T10:05:48.728Z,96761.26
2019-05-11T10:08:18.344Z,96762.19
2019-05-11T10:10:48.812Z,96759.20
2019-05-11T10:13:18.555Z,96764.80
2019-05-11T10:16:00.918Z,96767.98
2019-05-11T10:18:18.596Z,96767.59
2019-05-11T10:20:48.135Z,96766.84
2019-05-11T10:23:18.578Z,96770.16
2019-05-11T10:25:48.090Z,96766.95
2019-05-11T10:28:17.882Z,96777.83
2019-05-11T10:30:48.533Z,96775.15
2019-05-11T10:33:18.743Z,96777.12
2019-05-11T10:35:48.297Z,96764.80
2019-05-11T10:38:17.953Z,96751.29
2019-05-11T10:40:48.011Z,96746.00
2019-05-11T10:43:18.346Z,96744.68
2019-05-11T10:45:48.390Z,96748.03
2019-05-11T10:48:17.720Z,96746.82
2019-05-11T10:50:48.442Z,96749.44
2019-05-11T10:53:18.666Z,96743.03
2019-05-11T10:55:48.036Z,96735.52
2019-05-11T10:58:18.378Z,96727.92
2019-05-11T11:00:48.089Z,96726.59
2019-05-11T11:03:17.912Z,96725.45
2019-05-11T11:05:48.596Z,96727.94
2019-05-11T11:08:18.598Z,96717.47
2019-05-11T11:10:48.371Z,96704.23
2019-05-11T11:13:18.834Z,96704.23
2019-05-11T11:15:48.493Z,96714.36
2019-05-11T11:18:18.853Z,96726.14
2019-05-11T11:20:48.838Z,96718.41
2019-05-11T11:23:17.891Z,96719.70
2019-05-11T11:25:48.188Z,96732.19
2019-05-11T11:28:17.518Z,96722.02
2019-05-11T11:30:48.087Z,96728.94
2019-05-11T11:33:18.388Z,96728.96
2019-05-11T11:35:47.678Z,96728.96
2019-05-11T11:38:18.010Z,96746.25
2019-05-11T11:40:48.153Z,96739.58
2019-05-11T11:43:18.047Z,96736.63
2019-05-11T11:45:48.444Z,96743.87
2019-05-11T11:48:18.936Z,96736.87
2019-05-11T11:50:48.047Z,96726.73
2019-05-11T11:53:18.730Z,96724.36
2019-05-11T11:55:48.149Z,96715.99
2019-05-11T11:58:23.124Z,96704.94
2019-05-11T12:00:48.183Z,96704.94
2019-05-11T12:03:18.534Z,96710.69
2019-05-11T12:05:47.717Z,96710.69
2019-05-11T12:08:18.604Z,96727.09
2019-05-11T12:10:48.382Z,96723.53
2019-05-11T12:13:18.638Z,96720.67
2019-05-11T12:15:48.281Z,96709.93
2019-05-11T12:18:18.507Z,96705.39
2019-05-11T12:20:48.082Z,96715.05
2019-05-11T12:23:17.997Z,96719.44
2019-05-11T12:25:48.679Z,96723.27
2019-05-11T12:28:18.395Z,96667.84
2019-05-11T12:30:48.162Z,96725.19
2019-05-11T12:33:18.661Z,96752.80
2019-05-11T12:35:48.171Z,96761.59
2019-05-11T12:38:18.295Z,96765.42
2019-05-11T12:40:47.693Z,96772.92
2019-05-11T12:43:18.396Z,96778.14
2019-05-11T12:45:48.182Z,96735.19
2019-05-11T12:48:18.048Z,96765.27
2019-05-11T12:50:48.426Z,96765.27
2019-05-11T12:53:18.613Z,96772.76
2019-05-11T12:55:48.381Z,96778.22
2019-05-11T12:58:18.126Z,96776.25
2019-05-11T13:00:47.979Z,96799.56
2019-05-11T13:03:18.722Z,96820.00
2019-05-11T13:05:48.482Z,96833.75
2019-05-11T13:08:18.450Z,96830.26
2019-05-11T13:10:47.905Z,96833.30
2019-05-11T13:13:18.243Z,96851.97
2019-05-11T13:15:47.953Z,96853.09
2019-05-11T13:18:18.401Z,96852.13
2019-05-11T13:20:48.245Z,96844.60
2019-05-11T13:23:18.569Z,96829.97
2019-05-11T13:25:48.013Z,96840.02
2019-05-11T13:28:17.916Z,96842.45
2019-05-11T13:30:48.622Z,96837.22
2019-05-11T13:33:18.770Z,96823.67
2019-05-11T13:35:48.241Z,96807.87
2019-05-11T13:38:17.844Z,96817.27
2019-05-11T13:40:48.533Z,96819.29
2019-05-11T13:43:18.616Z,96822.94
2019-05-11T13:45:47.899Z,96822.37
2019-05-11T13:48:17.684Z,96816.79
2019-05-11T13:50:48.005Z,96815.11
2019-05-11T13:53:18.396Z,96820.92
2019-05-11T13:55:48.123Z,96820.45
2019-05-11T13:58:19.504Z,96825.66
2019-05-11T14:00:48.076Z,96833.05
2019-05-11T14:03:18.437Z,96833.05
2019-05-11T14:05:48.366Z,96831.95
2019-05-11T14:08:18.552Z,96846.24
2019-05-11T14:10:48.851Z,96841.41
2019-05-11T14:13:18.208Z,96839.05
2019-05-11T14:15:48.160Z,96832.59
2019-05-11T14:18:18.162Z,96839.13
2019-05-11T14:20:48.307Z,96843.03
2019-05-11T14:23:18.240Z,96849.64
2019-05-11T14:25:48.691Z,96851.52
2019-05-11T14:28:17.942Z,96846.52
2019-05-11T14:30:48.551Z,96847.83
2019-05-11T14:33:18.029Z,96863.50
2019-05-11T14:35:48.747Z,96868.00
2019-05-11T14:38:18.732Z,96805.94
2019-05-11T14:40:48.078Z,96849.42
2019-05-11T14:43:18.578Z,96854.25
2019-05-11T14:45:48.635Z,96864.77
2019-05-11T14:48:24.104Z,96871.72
2019-05-11T14:50:48.979Z,96882.27
2019-05-11T14:53:17.888Z,96882.36
2019-05-11T14:55:48.592Z,96903.38
2019-05-11T14:58:19.600Z,96897.83
2019-05-11T15:00:48.707Z,96904.30
2019-05-11T15:03:18.226Z,96914.87
2019-05-11T15:05:47.856Z,96913.72
2019-05-11T15:08:18.103Z,96927.98
2019-05-11T15:10:48.632Z,96946.92
2019-05-11T15:13:18.574Z,96965.59
2019-05-11T15:15:48.789Z,96984.67
2019-05-11T15:18:17.757Z,96982.39
2019-05-11T15:20:47.958Z,96976.38
2019-05-11T15:23:18.017Z,96978.97
2019-05-11T15:25:48.573Z,96964.86
2019-05-11T15:28:18.130Z,96945.71
2019-05-11T15:30:48.256Z,96940.30
2019-05-11T15:33:18.302Z,96948.20
2019-05-11T15:35:47.854Z,96951.36
2019-05-11T15:38:17.857Z,96962.09
2019-05-11T15:40:48.607Z,96960.52
2019-05-11T15:43:17.927Z,96964.09
2019-05-11T15:45:48.572Z,96966.85
2019-05-11T15:48:18.485Z,96989.14
2019-05-11T15:50:48.602Z,97013.41
2019-05-11T15:53:17.802Z,97002.27
2019-05-11T15:55:46.344Z,97012.54
2019-05-11T15:58:14.728Z,97008.80
2019-05-11T16:00:43.111Z,97019.66
2019-05-11T16:03:11.508Z,97014.93
2019-05-11T16:05:39.940Z,97016.31
2019-05-11T16:08:08.554Z,97016.98
2019-05-11T16:10:38.441Z,97023.31
2019-05-11T16:13:09.157Z,97026.50
2019-05-11T16:15:38.408Z,97026.50
2019-05-11T16:18:08.316Z,97049.94
2019-05-11T16:20:36.859Z,97054.38
2019-05-11T16:23:05.247Z,97051.47
2019-05-11T16:25:33.634Z,97048.67
2019-05-11T16:28:02.029Z,97051.58
2019-05-11T16:30:30.410Z,97052.16
2019-05-11T16:32:58.795Z,97046.54
2019-05-11T16:35:28.024Z,97037.81
2019-05-11T16:37:58.903Z,97034.78
2019-05-11T16:40:26.700Z,97047.91
2019-05-11T16:42:58.229Z,97055.63
2019-05-11T16:45:25.191Z,97056.30
2019-05-11T16:47:53.574Z,97059.22
2019-05-11T16:50:22.009Z,97051.34
2019-05-11T16:52:50.393Z,97044.94
2019-05-11T16:55:18.773Z,97048.44
2019-05-11T16:57:48.379Z,97052.52
2019-05-11T17:00:17.561Z,97058.25
2019-05-11T17:02:48.656Z,97060.02
2019-05-11T17:05:25.734Z,97073.95
2019-05-11T17:07:48.297Z,97080.00
2019-05-11T17:10:17.926Z,97082.48
2019-05-11T17:12:48.422Z,97089.44
2019-05-11T17:15:18.615Z,97099.95
2019-05-11T17:17:48.631Z,97104.52
2019-05-11T17:20:18.733Z,97101.39
2019-05-11T17:22:48.189Z,97100.95
2019-05-11T17:25:19.015Z,97100.70
2019-05-11T17:27:48.738Z,97103.45
2019-05-11T17:30:19.326Z,97117.98
2019-05-11T17:32:49.237Z,97132.02
2019-05-11T17:35:17.784Z,97139.94
2019-05-11T17:37:48.386Z,97148.43
2019-05-11T17:40:20.686Z,97148.02
2019-05-11T17:42:47.958Z,97161.02
2019-05-11T17:45:18.895Z,97167.97
2019-05-11T17:47:47.005Z,97165.09
2019-05-11T17:50:15.495Z,97177.66
2019-05-11T17:52:43.880Z,97164.02
2019-05-11T17:55:12.406Z,97172.63
2019-05-11T17:57:40.961Z,97176.89
2019-05-11T18:00:10.182Z,97176.38
2019-05-11T18:02:39.130Z,97173.92
2019-05-11T18:05:08.906Z,97181.74
2019-05-11T18:07:38.600Z,97177.66
2019-05-11T18:10:08.315Z,97177.78
2019-05-11T18:12:38.849Z,97174.55
2019-05-11T18:15:08.325Z,97172.55
2019-05-11T18:17:36.874Z,97182.06
2019-05-11T18:20:17.295Z,97178.18
2019-05-11T18:22:39.085Z,97191.97
2019-05-11T18:25:08.903Z,97184.34
2019-05-11T18:27:38.696Z,97180.18
2019-05-11T18:30:08.751Z,97182.52
2019-05-11T18:32:39.701Z,97185.47
2019-05-11T18:35:08.677Z,97186.00
2019-05-11T18:37:38.946Z,97187.34
2019-05-11T18:40:08.209Z,97189.23
2019-05-11T18:42:38.267Z,97194.00
2019-05-11T18:45:08.330Z,97197.63
2019-05-11T18:47:38.158Z,97196.45
2019-05-11T18:50:07.308Z,97199.16
2019-05-11T18:52:35.705Z,97196.56
2019-05-11T18:55:04.632Z,97199.64
2019-05-11T18:57:39.656Z,97200.16
2019-05-11T19:00:08.992Z,97160.36
2019-05-11T19:02:38.532Z,97246.09
2019-05-11T19:05:11.750Z,97245.95
2019-05-11T19:07:42.058Z,97250.70
2019-05-11T19:10:10.446Z,97257.98
2019-05-11T19:12:38.825Z,97268.05
2019-05-11T19:15:13.048Z,97269.92
2019-05-11T19:17:41.429Z,97274.38
2019-05-11T19:20:10.162Z,97282.13
2019-05-11T19:22:38.926Z,97282.79
2019-05-11T19:25:09.095Z,97279.41
2019-05-11T19:27:37.625Z,97285.59
2019-05-11T19:30:09.420Z,97219.78
2019-05-11T19:32:38.287Z,97281.08
2019-05-11T19:35:09.002Z,97275.42
2019-05-11T19:37:38.925Z,97276.71
2019-05-11T19:40:09.198Z,97298.28
2019-05-11T19:42:54.721Z,97322.55
2019-05-11T19:45:23.470Z,97313.25
2019-05-11T19:47:51.895Z,97327.06
2019-05-11T19:50:20.315Z,97315.16
2019-05-11T19:52:48.774Z,97319.47
2019-05-11T19:55:17.998Z,97318.41
2019-05-11T19:57:48.331Z,97319.97
2019-05-11T20:00:18.484Z,97318.56
2019-05-11T20:02:47.089Z,97325.83
2019-05-11T20:05:15.498Z,97327.91
2019-05-11T20:07:44.871Z,97329.20
2019-05-11T20:10:13.353Z,97336.55
2019-05-11T20:12:41.970Z,97339.25
2019-05-11T20:15:10.551Z,97340.65
2019-05-11T20:17:39.297Z,97343.86
2019-05-11T20:20:08.911Z,97351.24
2019-05-11T20:22:39.010Z,97352.91
2019-05-11T20:25:09.658Z,97361.95
2019-05-11T20:27:38.807Z,97342.23
2019-05-11T20:30:08.621Z,97364.06
2019-05-11T20:32:38.851Z,97362.47
2019-05-11T20:35:08.463Z,97366.45
2019-05-11T20:37:38.389Z,97358.70
2019-05-11T20:40:12.111Z,97361.28
2019-05-11T20:42:40.541Z,97369.92
2019-05-11T20:45:09.158Z,97372.52
2019-05-11T20:47:43.284Z,97373.23
2019-05-11T20:50:11.909Z,97371.11
2019-05-11T20:52:41.918Z,97375.31
2019-05-11T20:55:10.297Z,97385.06
2019-05-11T20:57:39.598Z,97384.95
2019-05-11T21:00:09.762Z,97388.31
2019-05-11T21:02:38.386Z,97391.20
2019-05-11T21:05:09.022Z,97392.35
2019-05-11T21:07:38.763Z,97394.51
2019-05-11T21:10:09.395Z,97390.28
2019-05-11T21:12:38.928Z,97394.94
2019-05-11T21:15:10.527Z,97402.69
2019-05-11T21:17:38.911Z,97405.28
2019-05-11T21:20:08.935Z,97404.13
2019-05-11T21:22:40.046Z,97403.31
2019-05-11T21:25:09.105Z,97404.23
2019-05-11T21:27:38.382Z,97411.17
2019-05-11T21:30:09.080Z,97411.80
2019-05-11T21:32:38.723Z,97411.49
2019-05-11T21:35:08.805Z,97419.25
2019-05-11T21:37:38.718Z,97414.54
2019-05-11T21:40:09.128Z,97424.47
2019-05-11T21:42:39.364Z,97428.80
2019-05-11T21:45:09.469Z,97433.09
2019-05-11T21:47:38.878Z,97435.78
2019-05-11T21:50:09.252Z,97435.37
2019-05-11T21:52:38.593Z,97415.16
2019-05-11T21:55:09.459Z,97440.54
2019-05-11T21:57:38.277Z,97423.83
2019-05-11T22:00:11.216Z,97444.92
2019-05-11T22:02:39.611Z,97447.10
2019-05-11T22:05:09.724Z,97448.85
2019-05-11T22:07:41.583Z,97451.79
2019-05-11T22:10:09.475Z,97460.84
2019-05-11T22:12:39.138Z,97460.53
2019-05-11T22:15:09.129Z,97463.11
2019-05-11T22:17:39.373Z,97465.70
2019-05-11T22:20:08.898Z,97469.98
2019-05-11T22:22:38.862Z,97470.31
2019-05-11T22:25:08.514Z,97469.78
2019-05-11T22:27:38.875Z,97465.09
2019-05-11T22:30:12.007Z,97466.38
2019-05-11T22:32:40.827Z,97468.97
2019-05-11T22:35:09.651Z,97469.87
2019-05-11T22:37:39.034Z,97475.98
2019-05-11T22:40:08.735Z,97478.63
2019-05-11T22:42:37.430Z,97479.55
2019-05-11T22:45:08.371Z,97482.19
2019-05-11T22:47:39.420Z,97480.52
2019-05-11T22:50:10.469Z,97484.39
2019-05-11T22:52:40.396Z,97481.41
2019-05-11T22:55:11.852Z,97482.19
2019-05-11T22:57:40.310Z,97484.39
2019-05-11T23:00:10.623Z,97483.98
2019-05-11T23:02:39.054Z,97485.28
2019-05-11T23:05:08.718Z,97486.57
2019-05-11T23:07:41.074Z,97485.28
2019-05-11T23:10:08.867Z,97484.88
2019-05-11T23:12:38.357Z,97496.91
2019-05-11T23:15:14.738Z,97496.91
2019-05-11T23:17:43.313Z,97501.29
2019-05-11T23:20:12.177Z,97505.27
2019-05-11T23:22:57.585Z,97504.02
2019-05-11T23:25:19.997Z,97506.66
2019-05-11T23:27:48.964Z,97495.91
2019-05-11T23:30:19.692Z,97480.18
2019-05-11T23:32:48.657Z,97482.81
2019-05-11T23:35:18.708Z,97480.66
2019-05-11T23:37:49.532Z,97475.95
2019-05-11T23:40:19.500Z,97477.23
2019-05-11T23:42:48.947Z,97479.52
2019-05-11T23:45:19.084Z,97481.36
2019-05-11T23:47:48.710Z,97483.94
2019-05-11T23:50:18.869Z,97485.55
2019-05-11T23:52:50.123Z,97487.16
2019-05-11T23:55:19.079Z,97487.93
2019-05-11T23:57:48.680Z,97486.97
